createdAt,value
2023-10-10T00:01:47.905Z,5.72
2023-10-10T00:06:51.071Z,5.20
2023-10-10T00:11:54.616Z,5.07
2023-10-10T00:17:00.977Z,4.35
2023-10-10T00:22:05.511Z,4.10
2023-10-10T00:27:14.257Z,4.03
2023-10-10T00:32:23.775Z,4.05
2023-10-10T00:37:30.430Z,4.00
2023-10-10T00:42:39.470Z,3.92
2023-10-10T00:47:46.029Z,3.70
2023-10-10T00:52:53.311Z,3.80
2023-10-10T00:57:59.909Z,4.07
2023-10-10T01:03:08.718Z,4.40
2023-10-10T01:08:11.752Z,4.03
2023-10-10T01:13:14.648Z,4.10
2023-10-10T01:18:18.891Z,3.83
2023-10-10T01:23:28.098Z,3.55
2023-10-10T01:28:35.671Z,4.47
2023-10-10T01:33:43.169Z,3.88
2023-10-10T01:39:09.978Z,3.80
2023-10-10T01:44:13.807Z,4.50
2023-10-10T01:49:21.550Z,4.90
2023-10-10T01:54:35.837Z,6.10
2023-10-10T01:59:39.831Z,5.55
2023-10-10T02:04:43.208Z,5.63
2023-10-10T02:09:54.378Z,6.90
2023-10-10T02:14:57.713Z,6.57
2023-10-10T02:20:18.974Z,6.22
2023-10-10T02:25:39.824Z,5.53
2023-10-10T02:30:42.653Z,5.30
2023-10-10T02:35:55.896Z,5.15
2023-10-10T02:41:16.444Z,4.63
2023-10-10T02:46:19.450Z,6.13
2023-10-10T02:51:22.322Z,6.72
2023-10-10T02:56:26.471Z,6.78
2023-10-10T03:01:51.860Z,7.57
2023-10-10T03:06:54.771Z,8.05
2023-10-10T03:12:04.941Z,8.00
2023-10-10T03:17:29.352Z,8.00
2023-10-10T03:22:53.775Z,8.20
2023-10-10T03:28:06.382Z,8.83
2023-10-10T03:33:17.896Z,9.13
2023-10-10T03:38:38.856Z,8.57
2023-10-10T03:44:00.191Z,9.05
2023-10-10T03:49:21.678Z,11.55
2023-10-10T03:54:42.053Z,10.07
2023-10-10T04:00:03.633Z,10.95
2023-10-10T04:05:33.259Z,11.35
2023-10-10T04:10:50.064Z,12.30
2023-10-10T04:16:11.648Z,13.98
2023-10-10T04:21:32.121Z,14.73
2023-10-10T04:26:52.391Z,15.60
2023-10-10T04:32:14.222Z,16.23
2023-10-10T04:37:34.695Z,17.30
2023-10-10T04:42:55.072Z,18.70
2023-10-10T04:48:16.715Z,18.58
2023-10-10T04:53:37.115Z,18.75
2023-10-10T04:58:57.316Z,17.30
2023-10-10T05:04:19.058Z,20.58
2023-10-10T05:09:39.420Z,20.30
2023-10-10T05:14:59.642Z,19.33
2023-10-10T05:20:21.499Z,19.02
2023-10-10T05:25:25.197Z,20.70
2023-10-10T05:30:40.875Z,21.13
2023-10-10T05:35:48.667Z,20.60
2023-10-10T05:40:52.395Z,21.70
2023-10-10T05:45:55.984Z,21.23
2023-10-10T05:51:00.543Z,24.13
2023-10-10T05:56:13.921Z,24.67
2023-10-10T06:01:18.515Z,23.55
2023-10-10T06:06:22.854Z,26.27
2023-10-10T06:11:25.728Z,28.50
2023-10-10T06:16:29.558Z,28.08
2023-10-10T06:21:33.778Z,30.25
2023-10-10T06:26:38.003Z,29.80
2023-10-10T06:31:44.947Z,26.70
2023-10-10T06:36:50.771Z,29.33
2023-10-10T06:41:55.701Z,30.73
2023-10-10T06:46:58.914Z,31.15
2023-10-10T06:52:03.065Z,30.42
2023-10-10T06:57:06.858Z,29.13
2023-10-10T07:02:21.067Z,31.80
2023-10-10T07:07:27.657Z,34.17
2023-10-10T07:12:32.978Z,36.58
2023-10-10T07:17:40.153Z,34.90
2023-10-10T07:22:46.259Z,37.33
2023-10-10T07:27:49.076Z,36.70
2023-10-10T07:32:52.357Z,39.38
2023-10-10T07:38:00.008Z,39.17
2023-10-10T07:43:04.385Z,39.85
2023-10-10T07:48:36.698Z,39.20
2023-10-10T07:53:45.720Z,36.23
2023-10-10T07:58:53.993Z,33.58
2023-10-10T08:03:57.089Z,35.78
2023-10-10T08:09:19.333Z,33.13
2023-10-10T08:14:25.670Z,32.35
2023-10-10T08:19:34.501Z,33.30
2023-10-10T08:24:40.412Z,35.97
2023-10-10T08:29:43.247Z,32.03
2023-10-10T08:34:46.522Z,32.17
2023-10-10T08:39:51.260Z,34.22
2023-10-10T08:44:56.830Z,33.15
2023-10-10T08:50:02.061Z,34.38
2023-10-10T08:55:11.376Z,30.92
2023-10-10T09:00:18.908Z,33.42
2023-10-10T09:05:23.729Z,33.65
2023-10-10T09:10:29.475Z,34.03
2023-10-10T09:15:35.120Z,34.95
2023-10-10T09:20:38.462Z,32.75
2023-10-10T09:25:45.333Z,32.42
2023-10-10T09:31:00.013Z,32.17
2023-10-10T09:36:10.408Z,33.10
2023-10-10T09:41:28.546Z,30.40
2023-10-10T09:46:59.931Z,33.00
2023-10-10T09:52:33.530Z,29.73
2023-10-10T09:57:41.444Z,31.65
2023-10-10T10:02:49.455Z,31.15
2023-10-10T10:08:06.445Z,34.40
2023-10-10T10:13:27.706Z,32.22
2023-10-10T10:18:45.729Z,32.38
2023-10-10T10:23:58.637Z,27.88
2023-10-10T10:29:16.819Z,29.33
2023-10-10T10:34:32.451Z,29.33
2023-10-10T10:39:37.315Z,27.92
2023-10-10T10:44:48.384Z,25.95
2023-10-10T10:49:55.589Z,26.80
2023-10-10T10:55:19.990Z,25.40
2023-10-10T11:00:55.528Z,25.05
2023-10-10T11:05:58.678Z,26.27
2023-10-10T11:11:21.677Z,24.67
2023-10-10T11:16:37.974Z,23.73
2023-10-10T11:21:48.731Z,22.15
2023-10-10T11:27:03.711Z,20.05
2023-10-10T11:32:09.341Z,21.08
2023-10-10T11:37:18.507Z,20.52
2023-10-10T11:42:30.998Z,21.10
2023-10-10T11:47:43.555Z,19.40
2023-10-10T11:52:54.663Z,17.27
2023-10-10T11:57:59.253Z,16.70
2023-10-10T12:03:06.713Z,17.45
2023-10-10T12:08:09.610Z,16.27
2023-10-10T12:13:20.586Z,15.98
2023-10-10T12:18:27.365Z,15.63
2023-10-10T12:23:31.363Z,17.35
2023-10-10T12:28:34.327Z,15.50
2023-10-10T12:33:38.521Z,15.50
2023-10-10T12:38:41.648Z,15.45
2023-10-10T12:43:44.478Z,15.23
2023-10-10T12:48:52.310Z,15.75
2023-10-10T12:54:02.123Z,15.00
2023-10-10T12:59:23.532Z,15.27
2023-10-10T13:04:33.079Z,14.82
2023-10-10T13:09:43.567Z,12.25
2023-10-10T13:14:51.881Z,11.52
2023-10-10T13:19:59.679Z,9.65
2023-10-10T13:25:09.768Z,8.13
2023-10-10T13:30:13.740Z,8.00
2023-10-10T13:35:21.182Z,8.13
2023-10-10T13:40:24.368Z,7.28
2023-10-10T13:45:29.393Z,7.72
2023-10-10T13:50:43.305Z,6.90
2023-10-10T13:55:47.196Z,7.15
2023-10-10T14:00:56.567Z,6.82
2023-10-10T14:06:05.227Z,7.50
2023-10-10T14:11:08.344Z,6.53
2023-10-10T14:16:11.274Z,7.80
2023-10-10T14:21:17.824Z,8.00
2023-10-10T14:26:28.743Z,7.50
2023-10-10T14:31:32.367Z,5.85
2023-10-10T14:36:40.333Z,5.20
2023-10-10T14:41:44.646Z,5.47
2023-10-10T14:46:47.517Z,5.15
2023-10-10T14:51:53.998Z,5.03
2023-10-10T14:56:56.890Z,5.95
2023-10-10T15:02:01.208Z,5.95
2023-10-10T15:07:05.929Z,4.82
2023-10-10T15:12:09.795Z,4.82
2023-10-10T15:17:13.424Z,5.05
2023-10-10T15:22:18.818Z,5.50
2023-10-10T15:27:21.726Z,4.82
2023-10-10T15:32:24.591Z,5.90
2023-10-10T15:37:31.633Z,5.53
2023-10-10T15:42:34.426Z,6.47
2023-10-10T15:47:37.330Z,5.53
2023-10-10T15:52:43.060Z,4.70
2023-10-10T15:57:45.987Z,5.20
2023-10-10T16:02:53.386Z,6.43
2023-10-10T16:08:08.845Z,5.45
2023-10-10T16:13:12.141Z,5.38
2023-10-10T16:18:17.075Z,6.28
2023-10-10T16:28:57.933Z,11.45
2023-10-10T16:34:03.231Z,6.63
2023-10-10T16:39:07.598Z,6.50
2023-10-10T16:44:14.802Z,5.97
2023-10-10T16:49:20.918Z,5.28
2023-10-10T16:54:23.881Z,4.93
2023-10-10T16:59:28.075Z,5.50
2023-10-10T17:04:30.922Z,5.78
2023-10-10T17:09:36.645Z,5.35
2023-10-10T17:14:40.814Z,4.75
2023-10-10T17:19:43.683Z,5.50
2023-10-10T17:24:48.896Z,5.88
2023-10-10T17:29:53.170Z,5.88
2023-10-10T17:34:56.042Z,5.82
2023-10-10T17:39:59.101Z,6.22
2023-10-10T17:45:04.873Z,5.30
2023-10-10T17:50:11.428Z,5.35
2023-10-10T17:55:14.228Z,4.95
2023-10-10T18:00:22.032Z,5.50
2023-10-10T18:05:25.299Z,5.32
2023-10-10T18:10:28.163Z,6.03
2023-10-10T18:15:33.152Z,5.88
2023-10-10T18:20:40.740Z,6.15
2023-10-10T18:25:44.438Z,5.80
2023-10-10T18:30:48.636Z,5.40
2023-10-10T18:35:51.489Z,5.78
2023-10-10T18:40:56.105Z,5.47
2023-10-10T18:46:01.032Z,5.97
2023-10-10T18:51:04.862Z,4.75
2023-10-10T18:56:09.113Z,5.38
2023-10-10T19:01:13.880Z,5.60
2023-10-10T19:06:18.875Z,5.90
2023-10-10T19:11:24.523Z,5.85
2023-10-10T19:16:29.021Z,4.93
2023-10-10T19:21:31.968Z,4.85
2023-10-10T19:26:36.334Z,4.85
2023-10-10T19:31:41.103Z,4.88
2023-10-10T19:36:45.886Z,5.40
2023-10-10T19:41:48.835Z,4.75
2023-10-10T19:46:54.695Z,5.57
2023-10-10T19:51:58.147Z,5.90
2023-10-10T19:57:00.973Z,4.90
2023-10-10T20:02:07.790Z,5.55
2023-10-10T20:07:10.710Z,5.38
2023-10-10T20:12:15.947Z,5.03
2023-10-10T20:17:20.140Z,5.13
2023-10-10T20:22:22.961Z,4.85
2023-10-10T20:27:31.555Z,4.97
2023-10-10T20:32:36.053Z,4.65
2023-10-10T20:37:39.260Z,4.97
2023-10-10T20:42:43.806Z,4.85
2023-10-10T20:47:48.798Z,4.78
2023-10-10T20:52:52.321Z,4.28
2023-10-10T20:57:56.783Z,4.68
2023-10-10T21:03:07.183Z,4.85
2023-10-10T21:08:10.453Z,5.03
2023-10-10T21:13:14.195Z,5.13
2023-10-10T21:18:19.645Z,4.43
2023-10-10T21:23:22.640Z,5.18
2023-10-10T21:28:26.178Z,4.68
2023-10-10T21:33:30.699Z,4.50
2023-10-10T21:38:35.408Z,4.68
2023-10-10T21:43:38.322Z,4.20
2023-10-10T21:48:42.586Z,4.85
2023-10-10T21:53:45.641Z,4.57
2023-10-10T21:58:48.458Z,4.28
2023-10-10T22:03:53.048Z,4.80
2023-10-10T22:08:55.979Z,4.88
2023-10-10T22:13:59.267Z,4.45
2023-10-10T22:19:03.567Z,5.05
2023-10-10T22:24:07.002Z,5.28
2023-10-10T22:29:12.431Z,5.45
2023-10-10T22:34:16.570Z,4.53
2023-10-10T22:39:19.580Z,4.65
2023-10-10T22:44:22.563Z,5.57
2023-10-10T22:49:26.736Z,5.38
2023-10-10T22:54:29.537Z,5.43
2023-10-10T22:59:35.232Z,4.30
2023-10-10T23:04:41.119Z,4.80
2023-10-10T23:09:44.727Z,4.80
2023-10-10T23:14:47.757Z,6.07
2023-10-10T23:19:51.927Z,4.78
2023-10-10T23:24:54.781Z,5.30
2023-10-10T23:29:57.684Z,5.03
2023-10-10T23:35:03.974Z,4.97
2023-10-10T23:40:15.308Z,5.07
2023-10-10T23:45:23.509Z,4.88
2023-10-10T23:50:28.888Z,4.57
2023-10-10T23:55:31.703Z,5.03
